Time;durP1;ratioP1;P1;durP2;ratioP2;P2;SDS_P1;SDS_P2;PMS_P1;PMS_P2;Temp;Humidity;BMP_temperature;BMP_pressure;BME280_temperature;BME280_humidity;BME280_pressure;Samples;Min_cycle;Max_cycle;Signal;HPM_P1;HPM_P2
2023/03/03 00:00:14;;;;;;;;;;;;;;;;;;5050676;28;19956;-79
2023/03/03 00:02:39;;;;;;;;;;;;;;;;;;5051517;28;20297;-78
2023/03/03 00:05:04;;;;;;;;;;;;;;;;;;5044278;28;19921;-78
2023/03/03 00:07:29;;;;;;;;;;;;;;;;;;5044451;28;19913;-79
2023/03/03 00:09:55;;;;;;;;;;;;;;;;;;5051902;28;19940;-79
2023/03/03 00:12:20;;;;;;;;;;;;;;;;;;5050832;28;19917;-79
2023/03/03 00:14:45;;;;;;;;;;;;;;;;;;5051366;28;19917;-79
2023/03/03 00:17:10;;;;;;;;;;;;;;;;;;5049963;28;20013;-79
2023/03/03 00:19:35;;;;;;;;;;;;;;;;;;5050353;28;19920;-80
2023/03/03 00:22:00;;;;;;;;;;;;;;;;;;5051934;28;19920;-80
2023/03/03 00:24:25;;;;;;;;;;;;;;;;;;5051115;28;20320;-80
2023/03/03 00:26:50;;;;;;;;;;;;;;;;;;5067563;28;19956;-80
2023/03/03 00:29:16;;;;;;;;;;;;;;;;;;5056286;28;19921;-80
2023/03/03 00:31:41;;;;;;;;;;;;;;;;;;5050455;28;19959;-80
2023/03/03 00:34:06;;;;;;;;;;;;;;;;;;5051224;28;20284;-80
2023/03/03 00:36:31;;;;;;;;;;;;;;;;;;5050871;28;20439;-79
2023/03/03 00:38:56;;;;;;;;;;;;;;;;;;5085382;28;19917;-81
2023/03/03 00:41:21;;;;;;;;;;;;;;;;;;5051761;28;19920;-80
2023/03/03 00:43:47;;;;;;;;;;;;;;;;;;5082901;28;19917;-81
2023/03/03 00:46:12;;;;;;;;;;;;;;;;;;5043523;28;19912;-81
2023/03/03 00:48:37;;;;;;;;;;;;;;;;;;5050589;28;20392;-81
2023/03/03 00:51:02;;;;;;;;;;;;;;;;;;5052290;28;20409;-80
2023/03/03 00:53:28;;;;;;;;;;;;;;;;;;5051543;28;19982;-79
2023/03/03 00:55:53;;;;;;;;;;;;;;;;;;5050398;28;20277;-79
2023/03/03 00:58:20;;;;;;;;;;;;;;;;;;5050060;28;20385;-79
2023/03/03 01:00:45;;;;;;;;;;;;;;;;;;5048950;28;19917;-78
2023/03/03 01:03:10;;;;;;;;;;;;;;;;;;5047594;28;19913;-79
2023/03/03 01:05:35;;;;;;;;;;;;;;;;;;5053736;28;19913;-79
2023/03/03 01:08:01;;;;;;;;;;;;;;;;;;5049368;28;19959;-79
2023/03/03 01:10:26;;;;;;;;;;;;;;;;;;5050994;28;19912;-79
2023/03/03 01:12:51;;;;;;;;;;;;;;;;;;5048807;28;20011;-80
2023/03/03 01:15:16;;;;;;;;;;;;;;;;;;5050096;28;19956;-78
2023/03/03 01:17:41;;;;;;;;;;;;;;;;;;5051447;28;19913;-78
2023/03/03 01:20:06;;;;;;;;;;;;;;;;;;5049474;28;19919;-78
2023/03/03 01:22:31;;;;;;;;;;;;;;;;;;5051141;28;20373;-78
2023/03/03 01:24:57;;;;;;;;;;;;;;;;;;5051288;28;20003;-79
2023/03/03 01:27:22;;;;;;;;;;;;;;;;;;5083108;28;19967;-78
2023/03/03 01:29:47;;;;;;;;;;;;;;;;;;5050223;28;19920;-78
2023/03/03 01:32:12;;;;;;;;;;;;;;;;;;5048247;28;19971;-78
2023/03/03 01:34:37;;;;;;;;;;;;;;;;;;5047050;28;19913;-78
2023/03/03 01:37:02;;;;;;;;;;;;;;;;;;5082608;28;20341;-78
2023/03/03 01:39:27;;;;;;;;;;;;;;;;;;5050528;28;19917;-79
2023/03/03 01:41:52;;;;;;;;;;;;;;;;;;5049851;28;19909;-79
2023/03/03 01:44:17;;;;;;;;;;;;;;;;;;5047954;28;20297;-79
2023/03/03 01:46:43;;;;;;;;;;;;;;;;;;5050984;28;19916;-79
2023/03/03 01:49:08;;;;;;;;;;;;;;;;;;5058951;28;20004;-79
2023/03/03 01:51:33;;;;;;;;;;;;;;;;;;5081094;28;19913;-79
2023/03/03 01:53:58;;;;;;;;;;;;;;;;;;5050287;28;19916;-79
2023/03/03 01:56:23;;;;;;;;;;;;;;;;;;5049703;28;19913;-78
2023/03/03 01:58:48;;;;;;;;;;;;;;;;;;5050140;28;19925;-79
2023/03/03 02:01:14;;;;;;;;;;;;;;;;;;5049388;28;20367;-79
2023/03/03 02:03:39;;;;;;;;;;;;;;;;;;5045632;28;19995;-78
2023/03/03 02:06:04;;;;;;;;;;;;;;;;;;5051311;28;19920;-78
2023/03/03 02:08:29;;;;;;;;;;;;;;;;;;5051132;28;19939;-78
2023/03/03 02:10:54;;;;;;;;;;;;;;;;;;5049432;28;20460;-78
2023/03/03 02:13:19;;;;;;;;;;;;;;;;;;5046515;28;19912;-78
2023/03/03 02:15:44;;;;;;;;;;;;;;;;;;5049515;28;20022;-79
2023/03/03 02:18:09;;;;;;;;;;;;;;;;;;5041558;28;19932;-79
2023/03/03 02:20:35;;;;;;;;;;;;;;;;;;5050639;28;19913;-78
2023/03/03 02:23:00;;;;;;;;;;;;;;;;;;5050220;28;19912;-78
2023/03/03 02:25:25;;;;;;;;;;;;;;;;;;5035469;28;19952;-78
2023/03/03 02:27:50;;;;;;;;;;;;;;;;;;5050765;28;19920;-78
2023/03/03 02:30:15;;;;;;;;;;;;;;;;;;5049290;28;19913;-78
2023/03/03 02:32:40;;;;;;;;;;;;;;;;;;5048925;28;20008;-78
2023/03/03 02:35:05;;;;;;;;;;;;;;;;;;5082830;28;19940;-78
2023/03/03 02:37:30;;;;;;;;;;;;;;;;;;5050075;28;19982;-78
2023/03/03 02:39:56;;;;;;;;;;;;;;;;;;5082502;28;19970;-78
2023/03/03 02:42:21;;;;;;;;;;;;;;;;;;5048764;28;19955;-79
2023/03/03 02:44:46;;;;;;;;;;;;;;;;;;5049348;28;19919;-79
2023/03/03 02:47:11;;;;;;;;;;;;;;;;;;5050832;28;20281;-79
2023/03/03 02:49:36;;;;;;;;;;;;;;;;;;5050322;28;20074;-79
2023/03/03 02:52:01;;;;;;;;;;;;;;;;;;5048183;28;20398;-79
2023/03/03 02:54:27;;;;;;;;;;;;;;;;;;5050144;28;20392;-79
2023/03/03 02:56:52;;;;;;;;;;;;;;;;;;5053420;28;20411;-78
2023/03/03 02:59:17;;;;;;;;;;;;;;;;;;5054176;28;20016;-78
2023/03/03 03:01:42;;;;;;;;;;;;;;;;;;5052695;28;20439;-78
2023/03/03 03:04:07;;;;;;;;;;;;;;;;;;5053262;28;20388;-78
2023/03/03 03:06:32;;;;;;;;;;;;;;;;;;5053201;28;20054;-78
2023/03/03 03:08:58;;;;;;;;;;;;;;;;;;5055200;28;19920;-79
2023/03/03 03:11:24;;;;;;;;;;;;;;;;;;5050999;28;19919;-79
2023/03/03 03:13:49;;;;;;;;;;;;;;;;;;5052218;28;19913;-79
2023/03/03 03:16:14;;;;;;;;;;;;;;;;;;5050918;28;19952;-79
2023/03/03 03:18:39;;;;;;;;;;;;;;;;;;5068031;28;20381;-79
2023/03/03 03:21:04;;;;;;;;;;;;;;;;;;5085909;28;19913;-79
2023/03/03 03:23:29;;;;;;;;;;;;;;;;;;5052992;28;19913;-79
2023/03/03 03:25:55;;;;;;;;;;;;;;;;;;5076857;28;19924;-79
2023/03/03 03:28:20;;;;;;;;;;;;;;;;;;5053582;28;19966;-79
2023/03/03 03:30:45;;;;;;;;;;;;;;;;;;5051708;28;19917;-80
2023/03/03 03:33:10;;;;;;;;;;;;;;;;;;5051868;28;19920;-80
2023/03/03 03:35:35;;;;;;;;;;;;;;;;;;5053401;28;19924;-79
2023/03/03 03:38:01;;;;;;;;;;;;;;;;;;5050330;28;19920;-79
2023/03/03 03:40:26;;;;;;;;;;;;;;;;;;5045944;28;20385;-79
2023/03/03 03:42:51;;;;;;;;;;;;;;;;;;5050589;28;20357;-80
2023/03/03 03:45:16;;;;;;;;;;;;;;;;;;5051087;28;20003;-79
2023/03/03 03:47:41;;;;;;;;;;;;;;;;;;5051409;28;19971;-79
2023/03/03 03:50:06;;;;;;;;;;;;;;;;;;5052518;28;19999;-80
2023/03/03 03:52:31;;;;;;;;;;;;;;;;;;5083285;28;19916;-80
2023/03/03 03:54:57;;;;;;;;;;;;;;;;;;5051876;28;19944;-79
2023/03/03 03:57:22;;;;;;;;;;;;;;;;;;5050034;28;19924;-80
2023/03/03 03:59:47;;;;;;;;;;;;;;;;;;5051614;28;19916;-79
2023/03/03 04:02:12;;;;;;;;;;;;;;;;;;5061748;28;19960;-80
2023/03/03 04:04:37;;;;;;;;;;;;;;;;;;5048968;28;19913;-79
2023/03/03 04:07:02;;;;;;;;;;;;;;;;;;5050478;28;19917;-79
2023/03/03 04:09:27;;;;;;;;;;;;;;;;;;5051014;28;19913;-79
2023/03/03 04:11:52;;;;;;;;;;;;;;;;;;5050858;28;19913;-79
2023/03/03 04:14:18;;;;;;;;;;;;;;;;;;5081060;28;20361;-79
2023/03/03 04:16:43;;;;;;;;;;;;;;;;;;5050425;28;19947;-78
2023/03/03 04:19:08;;;;;;;;;;;;;;;;;;5050539;28;19924;-78
2023/03/03 04:21:33;;;;;;;;;;;;;;;;;;5051003;28;19912;-79
2023/03/03 04:23:58;;;;;;;;;;;;;;;;;;5044507;28;19920;-78
2023/03/03 04:26:24;;;;;;;;;;;;;;;;;;5050311;28;19913;-79
2023/03/03 04:28:49;;;;;;;;;;;;;;;;;;5050679;28;19913;-79
2023/03/03 04:31:14;;;;;;;;;;;;;;;;;;5050675;28;19923;-79
2023/03/03 04:33:39;;;;;;;;;;;;;;;;;;5047637;28;19915;-79
2023/03/03 04:36:04;;;;;;;;;;;;;;;;;;5068206;28;19913;-79
2023/03/03 04:38:29;;;;;;;;;;;;;;;;;;5050097;28;19924;-79
2023/03/03 04:40:55;;;;;;;;;;;;;;;;;;5052150;28;19973;-79
2023/03/03 04:43:20;;;;;;;;;;;;;;;;;;5047779;28;19913;-79
2023/03/03 04:45:45;;;;;;;;;;;;;;;;;;5050777;28;19920;-79
2023/03/03 04:48:10;;;;;;;;;;;;;;;;;;5051241;28;20226;-79
2023/03/03 04:50:35;;;;;;;;;;;;;;;;;;5051285;28;19912;-80
2023/03/03 04:53:01;;;;;;;;;;;;;;;;;;5049705;28;19913;-78
2023/03/03 04:55:26;;;;;;;;;;;;;;;;;;5062135;28;19995;-78
2023/03/03 04:57:51;;;;;;;;;;;;;;;;;;5083557;28;19964;-78
2023/03/03 05:00:16;;;;;;;;;;;;;;;;;;5049337;28;20165;-78
2023/03/03 05:02:41;;;;;;;;;;;;;;;;;;5050107;28;19974;-79
2023/03/03 05:05:06;;;;;;;;;;;;;;;;;;5050352;28;20382;-79
2023/03/03 05:07:31;;;;;;;;;;;;;;;;;;5051544;28;19947;-78
2023/03/03 05:09:56;;;;;;;;;;;;;;;;;;5048546;28;19913;-79
2023/03/03 05:12:22;;;;;;;;;;;;;;;;;;5046998;28;19921;-79
2023/03/03 05:14:47;;;;;;;;;;;;;;;;;;5049468;28;19920;-79
2023/03/03 05:17:12;;;;;;;;;;;;;;;;;;5066134;28;19913;-79
2023/03/03 05:19:37;;;;;;;;;;;;;;;;;;5053569;28;20417;-79
2023/03/03 05:22:02;;;;;;;;;;;;;;;;;;5046062;28;19939;-78
2023/03/03 05:24:28;;;;;;;;;;;;;;;;;;5064095;28;20395;-78
2023/03/03 05:26:53;;;;;;;;;;;;;;;;;;5051293;28;20361;-78
2023/03/03 05:29:19;;;;;;;;;;;;;;;;;;5050003;28;19923;-78
2023/03/03 05:31:44;;;;;;;;;;;;;;;;;;5062896;28;20024;-78
2023/03/03 05:34:09;;;;;;;;;;;;;;;;;;5066398;28;20004;-81
2023/03/03 05:36:34;;;;;;;;;;;;;;;;;;5048785;28;20414;-83
2023/03/03 05:38:59;;;;;;;;;;;;;;;;;;5048007;28;19983;-78
2023/03/03 05:41:24;;;;;;;;;;;;;;;;;;5049723;28;19916;-80
2023/03/03 05:43:49;;;;;;;;;;;;;;;;;;5046740;28;19913;-78
2023/03/03 05:46:15;;;;;;;;;;;;;;;;;;5048271;28;19970;-79
2023/03/03 05:48:40;;;;;;;;;;;;;;;;;;5047731;28;19913;-80
2023/03/03 05:51:05;;;;;;;;;;;;;;;;;;5050074;28;19912;-76
2023/03/03 05:53:30;;;;;;;;;;;;;;;;;;5048197;28;20357;-86
2023/03/03 05:55:56;;;;;;;;;;;;;;;;;;5049870;28;20340;-78
2023/03/03 05:58:21;;;;;;;;;;;;;;;;;;5045095;28;19952;-80
2023/03/03 06:00:47;;;;;;;;;;;;;;;;;;5048960;28;19920;-78
2023/03/03 06:03:12;;;;;;;;;;;;;;;;;;5048894;28;19967;-76
2023/03/03 06:05:37;;;;;;;;;;;;;;;;;;5043182;28;19914;-77
2023/03/03 06:08:02;;;;;;;;;;;;;;;;;;5051380;28;19913;-78
2023/03/03 06:10:27;;;;;;;;;;;;;;;;;;5049603;28;19917;-78
2023/03/03 06:12:53;;;;;;;;;;;;;;;;;;5046979;28;19987;-78
2023/03/03 06:15:19;;;;;;;;;;;;;;;;;;5049054;28;20078;-78
2023/03/03 06:17:44;;;;;;;;;;;;;;;;;;5050316;28;20416;-78
2023/03/03 06:20:09;;;;;;;;;;;;;;;;;;5048966;28;19928;-79
2023/03/03 06:22:34;;;;;;;;;;;;;;;;;;5083521;28;20011;-79
2023/03/03 06:24:59;;;;;;;;;;;;;;;;;;5084400;28;19913;-77
2023/03/03 06:27:24;;;;;;;;;;;;;;;;;;5053852;28;19912;-77
2023/03/03 06:29:49;;;;;;;;;;;;;;;;;;5054354;28;19913;-77
2023/03/03 06:32:15;;;;;;;;;;;;;;;;;;5066538;28;19917;-79
2023/03/03 06:34:40;;;;;;;;;;;;;;;;;;5084456;28;19917;-79
2023/03/03 06:37:05;;;;;;;;;;;;;;;;;;5045550;28;20120;-79
2023/03/03 06:39:30;;;;;;;;;;;;;;;;;;5051807;28;20304;-78
2023/03/03 06:41:55;;;;;;;;;;;;;;;;;;5046443;28;19995;-78
2023/03/03 06:44:20;;;;;;;;;;;;;;;;;;5055407;28;19920;-78
2023/03/03 06:46:45;;;;;;;;;;;;;;;;;;5052589;28;19920;-77
2023/03/03 06:49:10;;;;;;;;;;;;;;;;;;5055940;28;20015;-77
2023/03/03 06:51:38;;;;;;;;;;;;;;;;;;5053702;28;19923;-78
2023/03/03 06:54:03;;;;;;;;;;;;;;;;;;5055870;28;19921;-79
2023/03/03 06:56:28;;;;;;;;;;;;;;;;;;5053115;28;20266;-78
2023/03/03 06:58:54;;;;;;;;;;;;;;;;;;5048615;28;19917;-79
2023/03/03 07:01:19;;;;;;;;;;;;;;;;;;5051967;28;20007;-79
2023/03/03 07:03:44;;;;;;;;;;;;;;;;;;5050583;28;19917;-79
2023/03/03 07:06:09;;;;;;;;;;;;;;;;;;5052865;28;20396;-78
2023/03/03 07:08:34;;;;;;;;;;;;;;;;;;5060408;28;20392;-78
2023/03/03 07:11:00;;;;;;;;;;;;;;;;;;5046233;28;19936;-78
2023/03/03 07:13:25;;;;;;;;;;;;;;;;;;5047506;28;20392;-78
2023/03/03 07:15:50;;;;;;;;;;;;;;;;;;5086287;28;20397;-78
2023/03/03 07:18:15;;;;;;;;;;;;;;;;;;5050210;28;20361;-79
2023/03/03 07:20:40;;;;;;;;;;;;;;;;;;5070413;28;20078;-79
2023/03/03 07:23:05;;;;;;;;;;;;;;;;;;5054188;28;19952;-79
2023/03/03 07:25:30;;;;;;;;;;;;;;;;;;5055375;28;20361;-79
2023/03/03 07:27:56;;;;;;;;;;;;;;;;;;5055410;28;20449;-78
2023/03/03 07:30:21;;;;;;;;;;;;;;;;;;5052824;28;20484;-79
2023/03/03 07:32:47;;;;;;;;;;;;;;;;;;5053582;28;19912;-79
2023/03/03 07:35:12;;;;;;;;;;;;;;;;;;5054297;28;20391;-79
2023/03/03 07:37:37;;;;;;;;;;;;;;;;;;5055230;28;19908;-78
2023/03/03 07:40:02;;;;;;;;;;;;;;;;;;5053844;28;20347;-78
2023/03/03 07:42:27;;;;;;;;;;;;;;;;;;5038694;28;19921;-78
2023/03/03 07:44:53;;;;;;;;;;;;;;;;;;5068887;28;19920;-78
2023/03/03 07:47:18;;;;;;;;;;;;;;;;;;5052898;28;19909;-78
2023/03/03 07:49:43;;;;;;;;;;;;;;;;;;5070192;28;20327;-78
2023/03/03 07:52:08;;;;;;;;;;;;;;;;;;5052511;28;19968;-78
2023/03/03 07:54:34;;;;;;;;;;;;;;;;;;5053916;28;19940;-79
2023/03/03 07:56:59;;;;;;;;;;;;;;;;;;5054171;28;20385;-79
2023/03/03 07:59:24;;;;;;;;;;;;;;;;;;5054470;28;20094;-78
2023/03/03 08:01:49;;;;;;;;;;;;;;;;;;5052463;28;19913;-78
2023/03/03 08:04:15;;;;;;;;;;;;;;;;;;5054570;28;19912;-78
2023/03/03 08:06:40;;;;;;;;;;;;;;;;;;5053791;28;19917;-78
2023/03/03 08:09:05;;;;;;;;;;;;;;;;;;5054765;28;19913;-78
2023/03/03 08:11:30;;;;;;;;;;;;;;;;;;5052770;28;20472;-78
2023/03/03 08:13:55;;;;;;;;;;;;;;;;;;5052016;28;19917;-79
2023/03/03 08:16:20;;;;;;;;;;;;;;;;;;5052636;28;20015;-78
2023/03/03 08:18:46;;;;;;;;;;;;;;;;;;5052720;28;20003;-78
2023/03/03 08:21:11;;;;;;;;;;;;;;;;;;5054112;28;19909;-78
2023/03/03 08:23:36;;;;;;;;;;;;;;;;;;5052077;28;19912;-78
2023/03/03 08:26:01;;;;;;;;;;;;;;;;;;5054044;28;19962;-78
2023/03/03 08:28:27;;;;;;;;;;;;;;;;;;5052307;28;20452;-78
2023/03/03 08:30:52;;;;;;;;;;;;;;;;;;5052207;28;19963;-78
2023/03/03 08:33:17;;;;;;;;;;;;;;;;;;5068423;28;19919;-78
2023/03/03 08:35:42;;;;;;;;;;;;;;;;;;5051953;28;19916;-79
2023/03/03 08:38:07;;;;;;;;;;;;;;;;;;5053170;28;20357;-78
2023/03/03 08:40:33;;;;;;;;;;;;;;;;;;5052581;28;20292;-78
2023/03/03 08:42:58;;;;;;;;;;;;;;;;;;5051861;28;20012;-78
2023/03/03 08:45:23;;;;;;;;;;;;;;;;;;5052533;28;19919;-78
2023/03/03 08:47:48;;;;;;;;;;;;;;;;;;5052429;28;19917;-78
2023/03/03 08:50:14;;;;;;;;;;;;;;;;;;5051529;28;19913;-78
2023/03/03 08:52:39;;;;;;;;;;;;;;;;;;5052044;28;19967;-78
2023/03/03 08:55:04;;;;;;;;;;;;;;;;;;5040803;28;19913;-78
2023/03/03 08:57:29;;;;;;;;;;;;;;;;;;5050647;28;19961;-78
2023/03/03 08:59:54;;;;;;;;;;;;;;;;;;5053464;28;19920;-78
2023/03/03 09:02:20;;;;;;;;;;;;;;;;;;5051501;28;19908;-78
2023/03/03 09:04:45;;;;;;;;;;;;;;;;;;5051260;28;20358;-78
2023/03/03 09:07:10;;;;;;;;;;;;;;;;;;5053032;28;19916;-80
2023/03/03 09:09:36;;;;;;;;;;;;;;;;;;5049177;28;19947;-78
2023/03/03 09:12:01;;;;;;;;;;;;;;;;;;5061754;28;20400;-78
2023/03/03 09:14:26;;;;;;;;;;;;;;;;;;5069884;28;19913;-77
2023/03/03 09:16:51;;;;;;;;;;;;;;;;;;5045886;28;20050;-79
2023/03/03 09:19:16;;;;;;;;;;;;;;;;;;5063592;28;20301;-81
2023/03/03 09:21:41;;;;;;;;;;;;;;;;;;5052397;28;19909;-81
2023/03/03 09:24:07;;;;;;;;;;;;;;;;;;5051704;28;19912;-80
2023/03/03 09:26:32;;;;;;;;;;;;;;;;;;5052140;28;19913;-82
2023/03/03 09:28:57;;;;;;;;;;;;;;;;;;5040518;28;19913;-84
2023/03/03 09:31:22;;;;;;;;;;;;;;;;;;5084074;28;20393;-85
2023/03/03 09:33:50;;;;;;;;;;;;;;;;;;5084236;28;19908;-86
2023/03/03 09:36:15;;;;;;;;;;;;;;;;;;5068098;28;19921;-87
2023/03/03 09:38:42;;;;;;;;;;;;;;;;;;5052921;28;19966;-87
2023/03/03 09:41:07;;;;;;;;;;;;;;;;;;5066967;28;19909;-87
2023/03/03 09:43:32;;;;;;;;;;;;;;;;;;5059504;28;19935;-87
2023/03/03 09:45:57;;;;;;;;;;;;;;;;;;5052925;28;19952;-86
2023/03/03 09:48:22;;;;;;;;;;;;;;;;;;5066064;28;19913;-87
2023/03/03 09:50:48;;;;;;;;;;;;;;;;;;5059952;28;19983;-85
2023/03/03 09:53:13;;;;;;;;;;;;;;;;;;5067090;28;19908;-85
2023/03/03 09:55:38;;;;;;;;;;;;;;;;;;5051732;28;19959;-86
2023/03/03 09:58:03;;;;;;;;;;;;;;;;;;5051650;28;20034;-85
2023/03/03 10:00:29;;;;;;;;;;;;;;;;;;5083549;28;19912;-85
2023/03/03 10:02:54;;;;;;;;;;;;;;;;;;5048121;28;19966;-85
2023/03/03 10:05:19;;;;;;;;;;;;;;;;;;5050147;28;19913;-85
2023/03/03 10:07:44;;;;;;;;;;;;;;;;;;5050821;28;19912;-85
2023/03/03 10:10:09;;;;;;;;;;;;;;;;;;5050944;28;19916;-85
2023/03/03 10:12:35;;;;;;;;;;;;;;;;;;5046531;28;19921;-85
2023/03/03 10:15:00;;;;;;;;;;;;;;;;;;5051681;28;19920;-86
2023/03/03 10:17:25;;;;;;;;;;;;;;;;;;5057515;28;19921;-87
2023/03/03 10:19:50;;;;;;;;;;;;;;;;;;5082376;28;20016;-86
2023/03/03 10:22:16;;;;;;;;;;;;;;;;;;5051701;28;20003;-87
2023/03/03 10:24:41;;;;;;;;;;;;;;;;;;5050692;28;19936;-87
2023/03/03 10:27:07;;;;;;;;;;;;;;;;;;5067618;28;20357;-86
2023/03/03 10:29:32;;;;;;;;;;;;;;;;;;5084461;28;20012;-87
2023/03/03 10:31:58;;;;;;;;;;;;;;;;;;5049059;28;19913;-87
2023/03/03 10:34:23;;;;;;;;;;;;;;;;;;5049526;28;19959;-86
2023/03/03 10:36:48;;;;;;;;;;;;;;;;;;5083624;28;19915;-84
2023/03/03 10:39:13;;;;;;;;;;;;;;;;;;5084204;28;19970;-83
2023/03/03 10:41:38;;;;;;;;;;;;;;;;;;5084301;28;19940;-86
2023/03/03 10:44:03;;;;;;;;;;;;;;;;;;5080497;28;19920;-86
2023/03/03 10:46:29;;;;;;;;;;;;;;;;;;5049354;28;20331;-86
2023/03/03 10:48:54;;;;;;;;;;;;;;;;;;5082599;28;19913;-86
2023/03/03 10:51:19;;;;;;;;;;;;;;;;;;5051864;28;19912;-86
2023/03/03 10:53:52;;;;;;;;;;;;;;;;;;5048901;28;19983;-87
2023/03/03 10:56:20;;;;;;;;;;;;;;;;;;5050108;28;19962;-87
2023/03/03 10:58:45;;;;;;;;;;;;;;;;;;5037930;28;20360;-87
2023/03/03 11:01:10;;;;;;;;;;;;;;;;;;5052397;28;19917;-85
2023/03/03 11:03:47;;;;;;;;;;;;;;;;;;5050421;28;19908;-89
2023/03/03 11:06:12;;;;;;;;;;;;;;;;;;5051774;28;19916;-88
2023/03/03 11:08:37;;;;;;;;;;;;;;;;;;5050295;28;19916;-88
2023/03/03 11:11:02;;;;;;;;;;;;;;;;;;5083795;28;20100;-86
2023/03/03 11:13:28;;;;;;;;;;;;;;;;;;5045886;28;19916;-87
2023/03/03 11:15:53;;;;;;;;;;;;;;;;;;5046973;28;20285;-84
2023/03/03 11:18:18;;;;;;;;;;;;;;;;;;5064271;28;19952;-84
2023/03/03 11:20:43;;;;;;;;;;;;;;;;;;5053766;28;20377;-84
2023/03/03 11:23:08;;;;;;;;;;;;;;;;;;5054140;28;19951;-84
2023/03/03 11:25:33;;;;;;;;;;;;;;;;;;5054811;28;19916;-84
2023/03/03 11:27:58;;;;;;;;;;;;;;;;;;5052636;28;19920;-84
2023/03/03 11:30:24;;;;;;;;;;;;;;;;;;5053797;28;19908;-84
2023/03/03 11:32:49;;;;;;;;;;;;;;;;;;5052261;28;19913;-85
2023/03/03 11:35:14;;;;;;;;;;;;;;;;;;5052846;28;19909;-84
2023/03/03 11:37:39;;;;;;;;;;;;;;;;;;5053304;28;19923;-84
2023/03/03 11:40:04;;;;;;;;;;;;;;;;;;5052960;28;19913;-84
2023/03/03 11:42:29;;;;;;;;;;;;;;;;;;5049267;28;20012;-82
2023/03/03 11:44:54;;;;;;;;;;;;;;;;;;5067711;28;19916;-81
2023/03/03 11:47:20;;;;;;;;;;;;;;;;;;5083921;28;19961;-83
2023/03/03 11:49:45;;;;;;;;;;;;;;;;;;5066612;28;20434;-84
2023/03/03 11:52:10;;;;;;;;;;;;;;;;;;5052370;28;19994;-85
2023/03/03 11:54:35;;;;;;;;;;;;;;;;;;5053500;28;20387;-85
2023/03/03 11:57:00;;;;;;;;;;;;;;;;;;5054283;28;19928;-85
2023/03/03 11:59:25;;;;;;;;;;;;;;;;;;5046725;28;19920;-84
2023/03/03 12:01:51;;;;;;;;;;;;;;;;;;5050350;28;20300;-85
2023/03/03 12:04:16;;;;;;;;;;;;;;;;;;5050652;28;20323;-83
2023/03/03 12:06:41;;;;;;;;;;;;;;;;;;5055235;28;19966;-77
2023/03/03 12:09:06;;;;;;;;;;;;;;;;;;5050390;28;20612;-79
2023/03/03 12:11:31;;;;;;;;;;;;;;;;;;5050552;28;20369;-77
2023/03/03 12:13:56;;;;;;;;;;;;;;;;;;5045689;28;19916;-80
2023/03/03 12:16:22;;;;;;;;;;;;;;;;;;5053371;28;20305;-78
2023/03/03 12:18:47;;;;;;;;;;;;;;;;;;5049870;28;19917;-76
2023/03/03 12:21:13;;;;;;;;;;;;;;;;;;5060370;28;19912;-77
2023/03/03 12:23:38;;;;;;;;;;;;;;;;;;5051971;28;19916;-78
2023/03/03 12:26:03;;;;;;;;;;;;;;;;;;5050612;28;19956;-80
2023/03/03 12:28:28;;;;;;;;;;;;;;;;;;5065519;28;19913;-79
2023/03/03 12:30:53;;;;;;;;;;;;;;;;;;5048154;28;19982;-78
2023/03/03 12:33:18;;;;;;;;;;;;;;;;;;5047440;28;20011;-76
2023/03/03 12:35:43;;;;;;;;;;;;;;;;;;5047418;28;19921;-76
2023/03/03 12:38:08;;;;;;;;;;;;;;;;;;5046172;28;20420;-75
2023/03/03 12:40:34;;;;;;;;;;;;;;;;;;5058178;28;19919;-75
2023/03/03 12:42:59;;;;;;;;;;;;;;;;;;5048718;28;19913;-77
2023/03/03 12:45:24;;;;;;;;;;;;;;;;;;5051229;28;19959;-76
2023/03/03 12:47:49;;;;;;;;;;;;;;;;;;5050464;28;19916;-76
2023/03/03 12:50:14;;;;;;;;;;;;;;;;;;5045890;28;20438;-76
2023/03/03 12:52:39;;;;;;;;;;;;;;;;;;5046380;28;19913;-75
2023/03/03 12:55:04;;;;;;;;;;;;;;;;;;5048119;28;19934;-75
2023/03/03 12:57:30;;;;;;;;;;;;;;;;;;5050861;28;20020;-75
2023/03/03 12:59:55;;;;;;;;;;;;;;;;;;5045376;28;20381;-75
2023/03/03 13:02:20;;;;;;;;;;;;;;;;;;5048794;28;19948;-75
2023/03/03 13:04:46;;;;;;;;;;;;;;;;;;5056099;28;19969;-74
2023/03/03 13:07:11;;;;;;;;;;;;;;;;;;5081090;28;19924;-75
2023/03/03 13:09:36;;;;;;;;;;;;;;;;;;5049394;28;19912;-75
2023/03/03 13:12:01;;;;;;;;;;;;;;;;;;5057554;28;19920;-75
2023/03/03 13:14:26;;;;;;;;;;;;;;;;;;5051366;28;19923;-75
2023/03/03 13:16:51;;;;;;;;;;;;;;;;;;5050799;28;19916;-76
2023/03/03 13:19:16;;;;;;;;;;;;;;;;;;5047683;28;19929;-75
2023/03/03 13:21:42;;;;;;;;;;;;;;;;;;5049021;28;20039;-76
2023/03/03 13:24:07;;;;;;;;;;;;;;;;;;5050372;28;20385;-76
2023/03/03 13:26:32;;;;;;;;;;;;;;;;;;5049435;28;19960;-75
2023/03/03 13:28:57;;;;;;;;;;;;;;;;;;5045771;28;19920;-75
2023/03/03 13:31:22;;;;;;;;;;;;;;;;;;5045495;28;19923;-75
2023/03/03 13:33:50;;;;;;;;;;;;;;;;;;5042390;28;19919;-74
2023/03/03 13:36:15;;;;;;;;;;;;;;;;;;5049306;28;19920;-74
2023/03/03 13:38:40;;;;;;;;;;;;;;;;;;5048631;28;20273;-75
2023/03/03 13:41:05;;;;;;;;;;;;;;;;;;5048472;28;19919;-75
2023/03/03 13:43:30;;;;;;;;;;;;;;;;;;5046886;28;19912;-75
2023/03/03 13:45:56;;;;;;;;;;;;;;;;;;5051080;28;19913;-75
2023/03/03 13:48:21;;;;;;;;;;;;;;;;;;5048703;28;19944;-75
2023/03/03 13:50:46;;;;;;;;;;;;;;;;;;5047756;28;19913;-75
2023/03/03 13:53:11;;;;;;;;;;;;;;;;;;5066836;28;19924;-75
2023/03/03 13:55:37;;;;;;;;;;;;;;;;;;5048730;28;20258;-75
2023/03/03 13:58:02;;;;;;;;;;;;;;;;;;5047900;28;20305;-76
2023/03/03 14:00:30;;;;;;;;;;;;;;;;;;5048503;28;20303;-76
2023/03/03 14:02:55;;;;;;;;;;;;;;;;;;5080401;28;19919;-75
2023/03/03 14:05:20;;;;;;;;;;;;;;;;;;5049825;28;19920;-75
2023/03/03 14:07:46;;;;;;;;;;;;;;;;;;5053299;28;19921;-74
2023/03/03 14:10:11;;;;;;;;;;;;;;;;;;5081796;28;19939;-75
2023/03/03 14:12:36;;;;;;;;;;;;;;;;;;5046428;28;20388;-75
2023/03/03 14:15:03;;;;;;;;;;;;;;;;;;5047919;28;19931;-75
2023/03/03 14:17:28;;;;;;;;;;;;;;;;;;5051574;28;19916;-76
2023/03/03 14:19:53;;;;;;;;;;;;;;;;;;5047698;28;20297;-75
2023/03/03 14:22:24;;;;;;;;;;;;;;;;;;5045698;28;19954;-75
2023/03/03 14:24:49;;;;;;;;;;;;;;;;;;5046374;28;19948;-74
2023/03/03 14:27:14;;;;;;;;;;;;;;;;;;5048423;28;20360;-75
2023/03/03 14:29:39;;;;;;;;;;;;;;;;;;5045712;28;20282;-75
2023/03/03 14:32:05;;;;;;;;;;;;;;;;;;5045556;28;20381;-75
2023/03/03 14:34:30;;;;;;;;;;;;;;;;;;5074080;28;20437;-75
2023/03/03 14:36:55;;;;;;;;;;;;;;;;;;5050155;28;19917;-77
2023/03/03 14:39:20;;;;;;;;;;;;;;;;;;5049567;28;19974;-77
2023/03/03 14:41:45;;;;;;;;;;;;;;;;;;5047785;28;19938;-76
2023/03/03 14:44:10;;;;;;;;;;;;;;;;;;5057424;28;20031;-75
2023/03/03 14:46:36;;;;;;;;;;;;;;;;;;5059764;28;19916;-76
2023/03/03 14:49:01;;;;;;;;;;;;;;;;;;5049464;28;19920;-74
2023/03/03 14:51:27;;;;;;;;;;;;;;;;;;5051007;28;19913;-76
2023/03/03 14:53:52;;;;;;;;;;;;;;;;;;5054111;28;20387;-76
2023/03/03 14:56:21;;;;;;;;;;;;;;;;;;5055831;28;19997;-75
2023/03/03 14:58:46;;;;;;;;;;;;;;;;;;5057412;28;20411;-76
2023/03/03 15:01:11;;;;;;;;;;;;;;;;;;5068280;28;19971;-76
2023/03/03 15:03:36;;;;;;;;;;;;;;;;;;5080968;28;19920;-76
2023/03/03 15:06:02;;;;;;;;;;;;;;;;;;5050326;28;19919;-75
2023/03/03 15:08:27;;;;;;;;;;;;;;;;;;5058375;28;19913;-76
2023/03/03 15:10:52;;;;;;;;;;;;;;;;;;5053001;28;19916;-75
2023/03/03 15:13:17;;;;;;;;;;;;;;;;;;5053708;28;19944;-76
2023/03/03 15:15:42;;;;;;;;;;;;;;;;;;5051993;28;19944;-76
2023/03/03 15:18:07;;;;;;;;;;;;;;;;;;5051056;28;19935;-76
2023/03/03 15:20:33;;;;;;;;;;;;;;;;;;5083407;28;19917;-77
2023/03/03 15:22:59;;;;;;;;;;;;;;;;;;5057107;28;20335;-76
2023/03/03 15:25:24;;;;;;;;;;;;;;;;;;5050016;28;21006;-77
2023/03/03 15:27:50;;;;;;;;;;;;;;;;;;5050196;28;19939;-76
2023/03/03 15:30:15;;;;;;;;;;;;;;;;;;5053735;28;19956;-77
2023/03/03 15:32:40;;;;;;;;;;;;;;;;;;5048604;28;20008;-75
2023/03/03 15:35:05;;;;;;;;;;;;;;;;;;5049737;28;19978;-76
2023/03/03 15:37:30;;;;;;;;;;;;;;;;;;5047879;28;20289;-76
2023/03/03 15:39:57;;;;;;;;;;;;;;;;;;5049501;28;19916;-76
2023/03/03 15:42:22;;;;;;;;;;;;;;;;;;5049991;28;19917;-76
2023/03/03 15:44:47;;;;;;;;;;;;;;;;;;5051007;28;19924;-76
2023/03/03 15:47:13;;;;;;;;;;;;;;;;;;5052214;28;19966;-76
2023/03/03 15:49:38;;;;;;;;;;;;;;;;;;5053048;28;19914;-76
2023/03/03 15:52:04;;;;;;;;;;;;;;;;;;5046402;28;19923;-76
2023/03/03 15:54:29;;;;;;;;;;;;;;;;;;5052397;28;19916;-76
2023/03/03 15:56:55;;;;;;;;;;;;;;;;;;5082762;28;20304;-76
2023/03/03 15:59:20;;;;;;;;;;;;;;;;;;5069934;28;20017;-76
2023/03/03 16:01:47;;;;;;;;;;;;;;;;;;5052794;28;19913;-77
2023/03/03 16:04:15;;;;;;;;;;;;;;;;;;5050271;28;19920;-75
2023/03/03 16:06:41;;;;;;;;;;;;;;;;;;5051709;28;20007;-75
2023/03/03 16:09:06;;;;;;;;;;;;;;;;;;5081885;28;20349;-76
2023/03/03 16:11:31;;;;;;;;;;;;;;;;;;5052891;28;19908;-75
2023/03/03 16:13:58;;;;;;;;;;;;;;;;;;5047416;28;19959;-76
2023/03/03 16:16:23;;;;;;;;;;;;;;;;;;5060445;28;19924;-76
2023/03/03 16:18:48;;;;;;;;;;;;;;;;;;5050631;28;19917;-76
2023/03/03 16:21:13;;;;;;;;;;;;;;;;;;5051103;28;19914;-76
2023/03/03 16:23:38;;;;;;;;;;;;;;;;;;5084200;28;19917;-76
2023/03/03 16:26:04;;;;;;;;;;;;;;;;;;5052580;28;20019;-75
2023/03/03 16:28:29;;;;;;;;;;;;;;;;;;5050197;28;20469;-76
2023/03/03 16:30:54;;;;;;;;;;;;;;;;;;5045160;28;19913;-76